sensor_id;sensor_type;location;lat;lon;timestamp;temperature;humidity
59148;DHT22;44930;52.878;6.168;2023-10-13T00:00:33;15.40;99.90
59148;DHT22;44930;52.878;6.168;2023-10-13T00:03:03;15.50;99.90
59148;DHT22;44930;52.878;6.168;2023-10-13T00:05:30;15.70;99.90
59148;DHT22;44930;52.878;6.168;2023-10-13T00:08:02;15.40;99.90
59148;DHT22;44930;52.878;6.168;2023-10-13T00:10:31;15.50;99.90
59148;DHT22;44930;52.878;6.168;2023-10-13T00:12:57;15.90;99.90
59148;DHT22;44930;52.878;6.168;2023-10-13T00:15:42;15.70;99.90
59148;DHT22;44930;52.878;6.168;2023-10-13T00:18:26;15.70;99.90
59148;DHT22;44930;52.878;6.168;2023-10-13T00:20:53;15.50;99.90
59148;DHT22;44930;52.878;6.168;2023-10-13T00:23:22;15.90;99.90
59148;DHT22;44930;52.878;6.168;2023-10-13T00:25:49;15.70;99.90
59148;DHT22;44930;52.878;6.168;2023-10-13T00:28:26;15.80;99.90
59148;DHT22;44930;52.878;6.168;2023-10-13T00:30:52;15.80;99.90
59148;DHT22;44930;52.878;6.168;2023-10-13T00:33:25;15.80;99.90
59148;DHT22;44930;52.878;6.168;2023-10-13T00:35:51;15.40;99.90
59148;DHT22;44930;52.878;6.168;2023-10-13T00:38:19;15.60;99.90
59148;DHT22;44930;52.878;6.168;2023-10-13T00:40:46;15.90;99.90
59148;DHT22;44930;52.878;6.168;2023-10-13T00:43:18;15.90;99.90
59148;DHT22;44930;52.878;6.168;2023-10-13T00:45:50;15.90;99.90
59148;DHT22;44930;52.878;6.168;2023-10-13T00:48:33;16.00;99.90
59148;DHT22;44930;52.878;6.168;2023-10-13T00:51:03;16.10;99.90
59148;DHT22;44930;52.878;6.168;2023-10-13T00:53:35;16.00;99.90
59148;DHT22;44930;52.878;6.168;2023-10-13T00:56:12;15.90;99.90
59148;DHT22;44930;52.878;6.168;2023-10-13T00:58:45;16.10;99.90
59148;DHT22;44930;52.878;6.168;2023-10-13T01:01:18;16.00;99.90
59148;DHT22;44930;52.878;6.168;2023-10-13T01:03:52;15.80;99.90
59148;DHT22;44930;52.878;6.168;2023-10-13T01:06:34;16.10;99.90
59148;DHT22;44930;52.878;6.168;2023-10-13T01:09:10;15.70;99.90
59148;DHT22;44930;52.878;6.168;2023-10-13T01:11:41;16.00;99.90
59148;DHT22;44930;52.878;6.168;2023-10-13T01:14:11;16.10;99.90
59148;DHT22;44930;52.878;6.168;2023-10-13T01:16:38;16.00;99.90
59148;DHT22;44930;52.878;6.168;2023-10-13T01:19:10;16.00;99.90
59148;DHT22;44930;52.878;6.168;2023-10-13T01:21:38;16.30;99.90
59148;DHT22;44930;52.878;6.168;2023-10-13T01:24:07;15.60;99.90
59148;DHT22;44930;52.878;6.168;2023-10-13T01:26:36;15.90;99.90
59148;DHT22;44930;52.878;6.168;2023-10-13T01:29:06;16.00;99.90
59148;DHT22;44930;52.878;6.168;2023-10-13T01:31:39;16.00;99.90
59148;DHT22;44930;52.878;6.168;2023-10-13T01:34:14;16.00;99.90
59148;DHT22;44930;52.878;6.168;2023-10-13T01:36:45;16.00;99.90
59148;DHT22;44930;52.878;6.168;2023-10-13T01:39:11;16.20;99.90
59148;DHT22;44930;52.878;6.168;2023-10-13T01:41:41;16.40;99.90
59148;DHT22;44930;52.878;6.168;2023-10-13T01:44:08;16.20;99.90
59148;DHT22;44930;52.878;6.168;2023-10-13T01:46:37;16.20;99.90
59148;DHT22;44930;52.878;6.168;2023-10-13T01:49:03;16.30;99.90
59148;DHT22;44930;52.878;6.168;2023-10-13T01:51:28;16.10;99.90
59148;DHT22;44930;52.878;6.168;2023-10-13T01:53:54;16.20;99.90
59148;DHT22;44930;52.878;6.168;2023-10-13T01:56:23;15.90;99.90
59148;DHT22;44930;52.878;6.168;2023-10-13T01:58:50;15.90;99.90
59148;DHT22;44930;52.878;6.168;2023-10-13T02:01:15;16.40;99.90
59148;DHT22;44930;52.878;6.168;2023-10-13T02:04:01;16.10;99.90
59148;DHT22;44930;52.878;6.168;2023-10-13T02:06:33;16.10;99.90
59148;DHT22;44930;52.878;6.168;2023-10-13T02:09:03;16.10;99.90
59148;DHT22;44930;52.878;6.168;2023-10-13T02:11:42;16.40;99.90
59148;DHT22;44930;52.878;6.168;2023-10-13T02:14:08;16.20;99.90
59148;DHT22;44930;52.878;6.168;2023-10-13T02:16:36;16.40;99.90
59148;DHT22;44930;52.878;6.168;2023-10-13T02:19:02;16.50;99.90
59148;DHT22;44930;52.878;6.168;2023-10-13T02:21:31;16.00;99.90
59148;DHT22;44930;52.878;6.168;2023-10-13T02:24:00;15.90;99.90
59148;DHT22;44930;52.878;6.168;2023-10-13T02:26:26;16.00;99.90
59148;DHT22;44930;52.878;6.168;2023-10-13T02:29:04;16.40;99.90
59148;DHT22;44930;52.878;6.168;2023-10-13T02:31:35;16.10;99.90
59148;DHT22;44930;52.878;6.168;2023-10-13T02:34:02;17.50;99.90
59148;DHT22;44930;52.878;6.168;2023-10-13T02:36:34;15.90;99.90
59148;DHT22;44930;52.878;6.168;2023-10-13T02:39:09;16.00;99.90
59148;DHT22;44930;52.878;6.168;2023-10-13T02:41:35;16.10;99.90
59148;DHT22;44930;52.878;6.168;2023-10-13T02:44:05;15.80;99.90
59148;DHT22;44930;52.878;6.168;2023-10-13T02:46:45;15.70;99.90
59148;DHT22;44930;52.878;6.168;2023-10-13T02:49:15;16.40;99.90
59148;DHT22;44930;52.878;6.168;2023-10-13T02:51:44;16.20;99.90
59148;DHT22;44930;52.878;6.168;2023-10-13T02:54:10;16.10;99.90
59148;DHT22;44930;52.878;6.168;2023-10-13T02:56:44;16.10;99.90
59148;DHT22;44930;52.878;6.168;2023-10-13T02:59:15;16.20;99.90
59148;DHT22;44930;52.878;6.168;2023-10-13T03:01:45;16.40;99.90
59148;DHT22;44930;52.878;6.168;2023-10-13T03:04:10;16.50;99.90
59148;DHT22;44930;52.878;6.168;2023-10-13T03:06:38;16.20;99.90
59148;DHT22;44930;52.878;6.168;2023-10-13T03:09:07;16.70;99.90
59148;DHT22;44930;52.878;6.168;2023-10-13T03:11:44;16.20;99.90
59148;DHT22;44930;52.878;6.168;2023-10-13T03:14:22;16.20;99.90
59148;DHT22;44930;52.878;6.168;2023-10-13T03:17:00;16.10;99.90
59148;DHT22;44930;52.878;6.168;2023-10-13T03:19:32;16.00;99.90
59148;DHT22;44930;52.878;6.168;2023-10-13T03:22:07;15.90;99.90
59148;DHT22;44930;52.878;6.168;2023-10-13T03:24:38;16.30;99.90
59148;DHT22;44930;52.878;6.168;2023-10-13T03:27:10;15.90;99.90
59148;DHT22;44930;52.878;6.168;2023-10-13T03:29:42;16.10;99.90
59148;DHT22;44930;52.878;6.168;2023-10-13T03:32:15;16.20;99.90
59148;DHT22;44930;52.878;6.168;2023-10-13T03:34:45;15.80;99.90
59148;DHT22;44930;52.878;6.168;2023-10-13T03:37:36;16.30;99.90
59148;DHT22;44930;52.878;6.168;2023-10-13T03:40:12;16.10;99.90
59148;DHT22;44930;52.878;6.168;2023-10-13T03:43:01;15.90;99.90
59148;DHT22;44930;52.878;6.168;2023-10-13T03:45:34;16.20;99.90
59148;DHT22;44930;52.878;6.168;2023-10-13T03:50:38;16.20;99.90
59148;DHT22;44930;52.878;6.168;2023-10-13T03:53:12;16.10;99.90
59148;DHT22;44930;52.878;6.168;2023-10-13T03:58:04;16.20;99.90
59148;DHT22;44930;52.878;6.168;2023-10-13T04:00:30;16.10;99.90
59148;DHT22;44930;52.878;6.168;2023-10-13T04:02:57;16.20;99.90
59148;DHT22;44930;52.878;6.168;2023-10-13T04:05:31;16.40;99.90
59148;DHT22;44930;52.878;6.168;2023-10-13T04:08:06;16.40;99.90
59148;DHT22;44930;52.878;6.168;2023-10-13T04:10:54;16.30;99.90
59148;DHT22;44930;52.878;6.168;2023-10-13T04:13:20;16.20;99.90
59148;DHT22;44930;52.878;6.168;2023-10-13T04:16:18;16.10;99.90
59148;DHT22;44930;52.878;6.168;2023-10-13T04:18:47;16.10;99.90
59148;DHT22;44930;52.878;6.168;2023-10-13T04:21:36;16.20;99.90
59148;DHT22;44930;52.878;6.168;2023-10-13T04:24:08;16.10;99.90
59148;DHT22;44930;52.878;6.168;2023-10-13T04:26:34;16.20;99.90
59148;DHT22;44930;52.878;6.168;2023-10-13T04:29:23;16.30;99.90
59148;DHT22;44930;52.878;6.168;2023-10-13T04:32:07;16.10;99.90
59148;DHT22;44930;52.878;6.168;2023-10-13T04:34:39;15.80;99.90
59148;DHT22;44930;52.878;6.168;2023-10-13T04:37:05;16.10;99.90
59148;DHT22;44930;52.878;6.168;2023-10-13T04:39:54;16.00;99.90
59148;DHT22;44930;52.878;6.168;2023-10-13T04:42:25;16.20;99.90
59148;DHT22;44930;52.878;6.168;2023-10-13T04:45:14;16.10;99.90
59148;DHT22;44930;52.878;6.168;2023-10-13T04:47:59;16.30;99.90
59148;DHT22;44930;52.878;6.168;2023-10-13T04:50:59;16.30;99.90
59148;DHT22;44930;52.878;6.168;2023-10-13T04:53:45;15.90;99.90
59148;DHT22;44930;52.878;6.168;2023-10-13T04:56:25;16.00;99.90
59148;DHT22;44930;52.878;6.168;2023-10-13T04:59:23;16.10;99.90
59148;DHT22;44930;52.878;6.168;2023-10-13T05:02:02;16.00;99.90
59148;DHT22;44930;52.878;6.168;2023-10-13T05:04:47;16.10;99.90
59148;DHT22;44930;52.878;6.168;2023-10-13T05:07:31;16.30;99.90
59148;DHT22;44930;52.878;6.168;2023-10-13T05:10:16;16.10;99.90
59148;DHT22;44930;52.878;6.168;2023-10-13T05:13:00;16.10;99.90
59148;DHT22;44930;52.878;6.168;2023-10-13T05:15:49;16.00;99.90
59148;DHT22;44930;52.878;6.168;2023-10-13T05:18:34;15.90;99.90
59148;DHT22;44930;52.878;6.168;2023-10-13T05:21:18;16.00;99.90
59148;DHT22;44930;52.878;6.168;2023-10-13T05:24:03;16.00;99.90
59148;DHT22;44930;52.878;6.168;2023-10-13T05:29:32;15.90;99.90
59148;DHT22;44930;52.878;6.168;2023-10-13T05:32:16;15.90;99.90
59148;DHT22;44930;52.878;6.168;2023-10-13T05:35:00;15.40;99.90
59148;DHT22;44930;52.878;6.168;2023-10-13T05:37:45;15.90;99.90
59148;DHT22;44930;52.878;6.168;2023-10-13T05:40:29;15.70;99.90
59148;DHT22;44930;52.878;6.168;2023-10-13T05:43:13;15.60;99.90
59148;DHT22;44930;52.878;6.168;2023-10-13T05:46:03;16.30;99.90
59148;DHT22;44930;52.878;6.168;2023-10-13T05:48:48;15.80;99.90
59148;DHT22;44930;52.878;6.168;2023-10-13T05:51:23;16.00;99.90
59148;DHT22;44930;52.878;6.168;2023-10-13T05:53:58;15.90;99.90
59148;DHT22;44930;52.878;6.168;2023-10-13T05:56:43;15.90;99.90
59148;DHT22;44930;52.878;6.168;2023-10-13T05:59:29;15.90;99.90
59148;DHT22;44930;52.878;6.168;2023-10-13T06:02:19;15.80;99.90
59148;DHT22;44930;52.878;6.168;2023-10-13T06:05:08;15.90;99.90
59148;DHT22;44930;52.878;6.168;2023-10-13T06:07:52;15.60;99.90
59148;DHT22;44930;52.878;6.168;2023-10-13T06:10:37;16.20;99.90
59148;DHT22;44930;52.878;6.168;2023-10-13T06:13:22;15.90;99.90
59148;DHT22;44930;52.878;6.168;2023-10-13T06:16:17;16.00;99.90
59148;DHT22;44930;52.878;6.168;2023-10-13T06:19:01;15.90;99.90
59148;DHT22;44930;52.878;6.168;2023-10-13T06:21:45;16.00;99.90
59148;DHT22;44930;52.878;6.168;2023-10-13T06:24:30;15.80;99.90
59148;DHT22;44930;52.878;6.168;2023-10-13T06:27:15;16.00;99.90
59148;DHT22;44930;52.878;6.168;2023-10-13T06:30:00;15.80;99.90
59148;DHT22;44930;52.878;6.168;2023-10-13T06:32:30;16.00;99.90
59148;DHT22;44930;52.878;6.168;2023-10-13T06:34:56;16.10;99.90
59148;DHT22;44930;52.878;6.168;2023-10-13T06:37:32;16.50;99.90
59148;DHT22;44930;52.878;6.168;2023-10-13T06:40:03;16.10;99.90
59148;DHT22;44930;52.878;6.168;2023-10-13T06:47:43;16.30;99.90
59148;DHT22;44930;52.878;6.168;2023-10-13T06:50:18;16.40;99.90
59148;DHT22;44930;52.878;6.168;2023-10-13T06:52:50;16.10;99.90
59148;DHT22;44930;52.878;6.168;2023-10-13T06:55:16;16.30;99.90
59148;DHT22;44930;52.878;6.168;2023-10-13T06:57:53;16.50;99.90
59148;DHT22;44930;52.878;6.168;2023-10-13T07:00:19;16.20;99.90
59148;DHT22;44930;52.878;6.168;2023-10-13T07:02:51;16.60;99.90
59148;DHT22;44930;52.878;6.168;2023-10-13T07:05:18;16.40;99.90
59148;DHT22;44930;52.878;6.168;2023-10-13T07:07:45;16.60;99.90
59148;DHT22;44930;52.878;6.168;2023-10-13T07:10:11;16.50;99.90
59148;DHT22;44930;52.878;6.168;2023-10-13T07:15:08;16.40;99.90
59148;DHT22;44930;52.878;6.168;2023-10-13T07:17:46;16.60;99.90
59148;DHT22;44930;52.878;6.168;2023-10-13T07:20:12;16.40;99.90
59148;DHT22;44930;52.878;6.168;2023-10-13T07:22:42;16.30;99.90
59148;DHT22;44930;52.878;6.168;2023-10-13T07:25:20;15.90;99.90
59148;DHT22;44930;52.878;6.168;2023-10-13T07:27:50;16.30;99.90
59148;DHT22;44930;52.878;6.168;2023-10-13T07:30:17;16.40;99.90
59148;DHT22;44930;52.878;6.168;2023-10-13T07:32:45;16.10;99.90
59148;DHT22;44930;52.878;6.168;2023-10-13T07:35:19;16.10;99.90
59148;DHT22;44930;52.878;6.168;2023-10-13T07:37:46;16.30;99.90
59148;DHT22;44930;52.878;6.168;2023-10-13T07:40:14;15.90;99.90
59148;DHT22;44930;52.878;6.168;2023-10-13T07:42:56;16.30;99.90
59148;DHT22;44930;52.878;6.168;2023-10-13T07:45:38;16.20;99.90
59148;DHT22;44930;52.878;6.168;2023-10-13T07:48:11;16.20;99.90
59148;DHT22;44930;52.878;6.168;2023-10-13T07:53:27;16.30;99.90
59148;DHT22;44930;52.878;6.168;2023-10-13T07:56:00;16.40;99.90
59148;DHT22;44930;52.878;6.168;2023-10-13T07:58:31;16.30;99.90
59148;DHT22;44930;52.878;6.168;2023-10-13T08:00:59;16.00;99.90
59148;DHT22;44930;52.878;6.168;2023-10-13T08:06:10;16.60;99.90
59148;DHT22;44930;52.878;6.168;2023-10-13T08:08:36;15.90;99.90
59148;DHT22;44930;52.878;6.168;2023-10-13T08:14:00;16.40;99.90
59148;DHT22;44930;52.878;6.168;2023-10-13T08:16:36;16.20;99.90
59148;DHT22;44930;52.878;6.168;2023-10-13T08:19:20;16.30;99.90
59148;DHT22;44930;52.878;6.168;2023-10-13T08:21:53;16.50;99.90
59148;DHT22;44930;52.878;6.168;2023-10-13T08:24:23;16.30;99.90
59148;DHT22;44930;52.878;6.168;2023-10-13T08:27:15;16.40;99.90
59148;DHT22;44930;52.878;6.168;2023-10-13T08:30:00;16.10;99.90
59148;DHT22;44930;52.878;6.168;2023-10-13T08:32:27;16.40;99.90
59148;DHT22;44930;52.878;6.168;2023-10-13T08:34:56;16.60;99.90
59148;DHT22;44930;52.878;6.168;2023-10-13T08:37:29;16.40;99.90
59148;DHT22;44930;52.878;6.168;2023-10-13T08:39:59;16.40;99.90
59148;DHT22;44930;52.878;6.168;2023-10-13T08:42:32;16.60;99.90
59148;DHT22;44930;52.878;6.168;2023-10-13T08:45:11;16.50;99.90
59148;DHT22;44930;52.878;6.168;2023-10-13T08:48:08;16.80;99.90
59148;DHT22;44930;52.878;6.168;2023-10-13T08:50:51;16.50;99.90
59148;DHT22;44930;52.878;6.168;2023-10-13T08:56:06;16.60;99.90
59148;DHT22;44930;52.878;6.168;2023-10-13T08:58:49;16.70;99.90
59148;DHT22;44930;52.878;6.168;2023-10-13T09:01:38;16.70;99.90
59148;DHT22;44930;52.878;6.168;2023-10-13T09:04:25;16.90;99.90
59148;DHT22;44930;52.878;6.168;2023-10-13T09:07:05;16.80;99.90
59148;DHT22;44930;52.878;6.168;2023-10-13T09:09:51;17.00;99.90
59148;DHT22;44930;52.878;6.168;2023-10-13T09:12:24;16.80;99.90
59148;DHT22;44930;52.878;6.168;2023-10-13T09:15:01;17.00;99.90
59148;DHT22;44930;52.878;6.168;2023-10-13T09:17:43;17.10;99.90
59148;DHT22;44930;52.878;6.168;2023-10-13T09:20:30;17.10;99.90
59148;DHT22;44930;52.878;6.168;2023-10-13T09:23:15;17.10;99.90
59148;DHT22;44930;52.878;6.168;2023-10-13T09:25:50;17.20;99.90
59148;DHT22;44930;52.878;6.168;2023-10-13T09:28:34;17.20;99.90
59148;DHT22;44930;52.878;6.168;2023-10-13T09:31:02;17.20;99.90
59148;DHT22;44930;52.878;6.168;2023-10-13T09:33:33;17.60;99.90
59148;DHT22;44930;52.878;6.168;2023-10-13T09:36:02;17.30;99.90
59148;DHT22;44930;52.878;6.168;2023-10-13T09:40:58;17.60;99.90
59148;DHT22;44930;52.878;6.168;2023-10-13T09:43:27;17.30;99.90
59148;DHT22;44930;52.878;6.168;2023-10-13T09:46:00;17.60;99.90
59148;DHT22;44930;52.878;6.168;2023-10-13T09:48:36;17.60;99.90
59148;DHT22;44930;52.878;6.168;2023-10-13T09:51:12;17.60;99.90
59148;DHT22;44930;52.878;6.168;2023-10-13T09:53:39;17.90;99.90
59148;DHT22;44930;52.878;6.168;2023-10-13T09:59:08;17.70;99.90
59148;DHT22;44930;52.878;6.168;2023-10-13T10:01:42;17.80;99.90
59148;DHT22;44930;52.878;6.168;2023-10-13T10:04:22;17.60;99.90
59148;DHT22;44930;52.878;6.168;2023-10-13T10:06:59;17.80;99.90
59148;DHT22;44930;52.878;6.168;2023-10-13T10:17:22;18.30;99.90
59148;DHT22;44930;52.878;6.168;2023-10-13T10:19:52;18.30;99.90
59148;DHT22;44930;52.878;6.168;2023-10-13T10:22:26;18.10;99.90
59148;DHT22;44930;52.878;6.168;2023-10-13T10:25:02;18.10;99.90
59148;DHT22;44930;52.878;6.168;2023-10-13T10:27:32;18.20;99.90
59148;DHT22;44930;52.878;6.168;2023-10-13T10:29:58;18.30;99.90
59148;DHT22;44930;52.878;6.168;2023-10-13T10:32:36;18.20;99.90
59148;DHT22;44930;52.878;6.168;2023-10-13T10:35:10;18.60;99.90
59148;DHT22;44930;52.878;6.168;2023-10-13T10:37:46;18.50;99.90
59148;DHT22;44930;52.878;6.168;2023-10-13T10:40:17;18.50;99.90
59148;DHT22;44930;52.878;6.168;2023-10-13T10:43:01;18.60;99.90
59148;DHT22;44930;52.878;6.168;2023-10-13T10:45:29;18.60;99.90
59148;DHT22;44930;52.878;6.168;2023-10-13T10:48:12;19.20;99.90
59148;DHT22;44930;52.878;6.168;2023-10-13T10:50:56;20.30;99.90
59148;DHT22;44930;52.878;6.168;2023-10-13T10:53:23;18.60;99.90
59148;DHT22;44930;52.878;6.168;2023-10-13T10:56:04;21.00;99.90
59148;DHT22;44930;52.878;6.168;2023-10-13T10:58:34;19.00;99.90
59148;DHT22;44930;52.878;6.168;2023-10-13T11:01:09;19.20;99.90
59148;DHT22;44930;52.878;6.168;2023-10-13T11:03:54;20.40;99.90
59148;DHT22;44930;52.878;6.168;2023-10-13T11:06:23;19.30;99.90
59148;DHT22;44930;52.878;6.168;2023-10-13T11:08:50;18.80;99.90
59148;DHT22;44930;52.878;6.168;2023-10-13T11:11:32;19.00;99.90
59148;DHT22;44930;52.878;6.168;2023-10-13T11:14:01;19.00;99.90
59148;DHT22;44930;52.878;6.168;2023-10-13T11:16:49;18.90;99.90
59148;DHT22;44930;52.878;6.168;2023-10-13T11:19:42;19.80;99.90
59148;DHT22;44930;52.878;6.168;2023-10-13T11:22:12;19.00;99.90
59148;DHT22;44930;52.878;6.168;2023-10-13T11:24:58;18.70;99.90
59148;DHT22;44930;52.878;6.168;2023-10-13T11:27:29;18.80;99.90
59148;DHT22;44930;52.878;6.168;2023-10-13T11:30:10;19.00;99.90
59148;DHT22;44930;52.878;6.168;2023-10-13T11:32:39;18.40;99.90
59148;DHT22;44930;52.878;6.168;2023-10-13T11:35:09;20.10;99.90
59148;DHT22;44930;52.878;6.168;2023-10-13T11:37:46;18.80;99.90
59148;DHT22;44930;52.878;6.168;2023-10-13T11:40:21;18.30;99.90
59148;DHT22;44930;52.878;6.168;2023-10-13T11:43:06;18.80;99.90
59148;DHT22;44930;52.878;6.168;2023-10-13T11:45:39;18.90;99.90
59148;DHT22;44930;52.878;6.168;2023-10-13T11:48:19;18.70;99.90
59148;DHT22;44930;52.878;6.168;2023-10-13T11:51:00;19.70;99.90
59148;DHT22;44930;52.878;6.168;2023-10-13T11:53:25;19.10;99.90
59148;DHT22;44930;52.878;6.168;2023-10-13T11:55:55;19.00;99.90
59148;DHT22;44930;52.878;6.168;2023-10-13T11:58:20;18.90;99.90
59148;DHT22;44930;52.878;6.168;2023-10-13T12:00:46;19.00;99.90
59148;DHT22;44930;52.878;6.168;2023-10-13T12:03:26;18.80;99.90
59148;DHT22;44930;52.878;6.168;2023-10-13T12:06:11;18.90;99.90
59148;DHT22;44930;52.878;6.168;2023-10-13T12:09:07;18.50;99.90
59148;DHT22;44930;52.878;6.168;2023-10-13T12:11:49;18.60;99.90
59148;DHT22;44930;52.878;6.168;2023-10-13T12:14:20;18.40;99.90
59148;DHT22;44930;52.878;6.168;2023-10-13T12:16:49;18.60;99.90
59148;DHT22;44930;52.878;6.168;2023-10-13T12:19:20;19.10;99.90
59148;DHT22;44930;52.878;6.168;2023-10-13T12:21:52;18.70;99.90
59148;DHT22;44930;52.878;6.168;2023-10-13T12:24:26;18.70;99.90
59148;DHT22;44930;52.878;6.168;2023-10-13T12:27:05;18.60;99.90
59148;DHT22;44930;52.878;6.168;2023-10-13T12:29:49;18.70;99.90
59148;DHT22;44930;52.878;6.168;2023-10-13T12:32:17;18.60;99.90
59148;DHT22;44930;52.878;6.168;2023-10-13T12:34:48;18.50;99.90
59148;DHT22;44930;52.878;6.168;2023-10-13T12:37:24;19.00;99.90
59148;DHT22;44930;52.878;6.168;2023-10-13T12:40:15;18.60;99.90
59148;DHT22;44930;52.878;6.168;2023-10-13T12:43:00;20.30;99.90
59148;DHT22;44930;52.878;6.168;2023-10-13T12:45:45;19.10;99.90
59148;DHT22;44930;52.878;6.168;2023-10-13T12:48:31;19.30;99.90
59148;DHT22;44930;52.878;6.168;2023-10-13T12:51:16;19.00;99.90
59148;DHT22;44930;52.878;6.168;2023-10-13T12:53:54;19.00;99.90
59148;DHT22;44930;52.878;6.168;2023-10-13T12:56:21;18.90;99.90
59148;DHT22;44930;52.878;6.168;2023-10-13T12:58:54;19.10;99.90
59148;DHT22;44930;52.878;6.168;2023-10-13T13:01:24;18.70;99.90
59148;DHT22;44930;52.878;6.168;2023-10-13T13:03:52;19.00;99.90
59148;DHT22;44930;52.878;6.168;2023-10-13T13:06:23;19.00;99.90
59148;DHT22;44930;52.878;6.168;2023-10-13T13:08:58;19.00;99.90
59148;DHT22;44930;52.878;6.168;2023-10-13T13:11:25;18.90;99.90
59148;DHT22;44930;52.878;6.168;2023-10-13T13:13:50;18.80;99.90
59148;DHT22;44930;52.878;6.168;2023-10-13T13:16:18;18.70;99.90
59148;DHT22;44930;52.878;6.168;2023-10-13T13:18:47;18.70;99.90
59148;DHT22;44930;52.878;6.168;2023-10-13T13:21:12;18.40;99.90
59148;DHT22;44930;52.878;6.168;2023-10-13T13:23:54;18.50;99.90
59148;DHT22;44930;52.878;6.168;2023-10-13T13:26:23;18.60;99.90
59148;DHT22;44930;52.878;6.168;2023-10-13T13:28:49;18.50;99.90
59148;DHT22;44930;52.878;6.168;2023-10-13T13:31:21;18.60;99.90
59148;DHT22;44930;52.878;6.168;2023-10-13T13:33:56;18.50;99.90
59148;DHT22;44930;52.878;6.168;2023-10-13T13:36:21;18.70;99.90
59148;DHT22;44930;52.878;6.168;2023-10-13T13:38:48;18.50;99.90
59148;DHT22;44930;52.878;6.168;2023-10-13T13:41:20;18.50;99.90
59148;DHT22;44930;52.878;6.168;2023-10-13T13:43:48;18.40;99.90
59148;DHT22;44930;52.878;6.168;2023-10-13T13:46:21;18.40;99.90
59148;DHT22;44930;52.878;6.168;2023-10-13T13:48:51;18.40;99.90
59148;DHT22;44930;52.878;6.168;2023-10-13T13:51:23;18.40;99.90
59148;DHT22;44930;52.878;6.168;2023-10-13T13:53:53;18.40;99.90
59148;DHT22;44930;52.878;6.168;2023-10-13T13:56:19;18.50;99.90
59148;DHT22;44930;52.878;6.168;2023-10-13T13:58:49;18.50;99.90
59148;DHT22;44930;52.878;6.168;2023-10-13T14:01:32;18.40;99.90
59148;DHT22;44930;52.878;6.168;2023-10-13T14:04:00;18.70;99.90
59148;DHT22;44930;52.878;6.168;2023-10-13T14:06:29;18.60;99.90
59148;DHT22;44930;52.878;6.168;2023-10-13T14:08:55;18.50;99.90
59148;DHT22;44930;52.878;6.168;2023-10-13T14:11:25;18.50;99.90
59148;DHT22;44930;52.878;6.168;2023-10-13T14:16:46;18.50;99.90
59148;DHT22;44930;52.878;6.168;2023-10-13T14:19:13;18.40;99.90
59148;DHT22;44930;52.878;6.168;2023-10-13T14:21:55;18.60;99.90
59148;DHT22;44930;52.878;6.168;2023-10-13T14:24:22;18.60;99.90
59148;DHT22;44930;52.878;6.168;2023-10-13T14:26:57;18.60;99.90
59148;DHT22;44930;52.878;6.168;2023-10-13T14:29:33;18.60;99.90
59148;DHT22;44930;52.878;6.168;2023-10-13T14:31:58;18.70;99.90
59148;DHT22;44930;52.878;6.168;2023-10-13T14:34:24;18.70;99.90
59148;DHT22;44930;52.878;6.168;2023-10-13T14:36:52;18.60;99.90
59148;DHT22;44930;52.878;6.168;2023-10-13T14:39:20;18.60;99.90
59148;DHT22;44930;52.878;6.168;2023-10-13T14:41:47;18.70;99.90
59148;DHT22;44930;52.878;6.168;2023-10-13T14:44:13;18.60;99.90
59148;DHT22;44930;52.878;6.168;2023-10-13T14:46:39;18.80;99.90
59148;DHT22;44930;52.878;6.168;2023-10-13T14:49:05;18.60;99.90
59148;DHT22;44930;52.878;6.168;2023-10-13T14:51:31;18.50;99.90
59148;DHT22;44930;52.878;6.168;2023-10-13T14:53:58;18.60;99.90
59148;DHT22;44930;52.878;6.168;2023-10-13T14:56:26;18.50;99.90
59148;DHT22;44930;52.878;6.168;2023-10-13T14:58:53;18.50;99.90
59148;DHT22;44930;52.878;6.168;2023-10-13T15:01:20;18.40;99.90
59148;DHT22;44930;52.878;6.168;2023-10-13T15:06:17;18.30;99.90
59148;DHT22;44930;52.878;6.168;2023-10-13T15:08:47;18.20;99.90
59148;DHT22;44930;52.878;6.168;2023-10-13T15:11:13;18.00;99.90
59148;DHT22;44930;52.878;6.168;2023-10-13T15:13:42;17.90;99.90
59148;DHT22;44930;52.878;6.168;2023-10-13T15:16:18;18.00;99.90
59148;DHT22;44930;52.878;6.168;2023-10-13T15:18:48;17.80;99.90
59148;DHT22;44930;52.878;6.168;2023-10-13T15:21:21;17.80;99.90
59148;DHT22;44930;52.878;6.168;2023-10-13T15:23:48;17.80;99.90
59148;DHT22;44930;52.878;6.168;2023-10-13T15:26:19;17.80;99.90
59148;DHT22;44930;52.878;6.168;2023-10-13T15:28:47;17.90;99.90
59148;DHT22;44930;52.878;6.168;2023-10-13T15:31:22;17.90;99.90
59148;DHT22;44930;52.878;6.168;2023-10-13T15:34:03;18.10;99.90
59148;DHT22;44930;52.878;6.168;2023-10-13T15:36:33;17.80;99.90
59148;DHT22;44930;52.878;6.168;2023-10-13T15:38:59;17.90;99.90
59148;DHT22;44930;52.878;6.168;2023-10-13T15:41:27;17.70;99.90
59148;DHT22;44930;52.878;6.168;2023-10-13T15:43:53;17.70;99.90
59148;DHT22;44930;52.878;6.168;2023-10-13T15:46:22;17.80;99.90
59148;DHT22;44930;52.878;6.168;2023-10-13T15:48:48;17.70;99.90
59148;DHT22;44930;52.878;6.168;2023-10-13T15:51:14;17.70;99.90
59148;DHT22;44930;52.878;6.168;2023-10-13T15:53:40;17.70;99.90
59148;DHT22;44930;52.878;6.168;2023-10-13T15:56:06;17.70;99.90
59148;DHT22;44930;52.878;6.168;2023-10-13T15:58:49;17.50;99.90
59148;DHT22;44930;52.878;6.168;2023-10-13T16:01:16;17.70;99.90
59148;DHT22;44930;52.878;6.168;2023-10-13T16:03:42;17.70;99.90
59148;DHT22;44930;52.878;6.168;2023-10-13T16:06:12;17.80;99.90
59148;DHT22;44930;52.878;6.168;2023-10-13T16:08:41;17.80;99.90
59148;DHT22;44930;52.878;6.168;2023-10-13T16:11:11;17.70;99.90
59148;DHT22;44930;52.878;6.168;2023-10-13T16:13:40;17.70;99.90
59148;DHT22;44930;52.878;6.168;2023-10-13T16:18:41;17.60;99.90
59148;DHT22;44930;52.878;6.168;2023-10-13T16:21:12;17.80;99.90
59148;DHT22;44930;52.878;6.168;2023-10-13T16:23:41;17.80;99.90
59148;DHT22;44930;52.878;6.168;2023-10-13T16:26:09;17.80;99.90
59148;DHT22;44930;52.878;6.168;2023-10-13T16:28:35;17.80;99.90
59148;DHT22;44930;52.878;6.168;2023-10-13T16:31:02;17.80;99.90
59148;DHT22;44930;52.878;6.168;2023-10-13T16:33:28;17.80;99.90
59148;DHT22;44930;52.878;6.168;2023-10-13T16:35:54;17.70;99.90
59148;DHT22;44930;52.878;6.168;2023-10-13T16:38:22;17.70;99.90
59148;DHT22;44930;52.878;6.168;2023-10-13T16:40:53;17.70;99.90
59148;DHT22;44930;52.878;6.168;2023-10-13T16:43:22;17.80;99.90
59148;DHT22;44930;52.878;6.168;2023-10-13T16:45:47;17.90;99.90
59148;DHT22;44930;52.878;6.168;2023-10-13T16:48:14;17.70;99.90
59148;DHT22;44930;52.878;6.168;2023-10-13T16:50:43;17.70;99.90
59148;DHT22;44930;52.878;6.168;2023-10-13T16:53:10;17.90;99.90
59148;DHT22;44930;52.878;6.168;2023-10-13T16:55:36;18.00;99.90
59148;DHT22;44930;52.878;6.168;2023-10-13T16:58:01;17.90;99.90